createdAt,value
2018-07-13T00:00:32.715Z,2.87
2018-07-13T00:03:00.783Z,3.10
2018-07-13T00:05:28.895Z,3.23
2018-07-13T00:07:56.963Z,2.60
2018-07-13T00:10:25.043Z,2.90
2018-07-13T00:12:53.102Z,2.90
2018-07-13T00:15:21.486Z,2.77
2018-07-13T00:17:49.562Z,2.90
2018-07-13T00:20:17.627Z,2.73
2018-07-13T00:22:45.686Z,2.90
2018-07-13T00:25:13.754Z,2.93
2018-07-13T00:27:41.819Z,2.43
2018-07-13T00:30:09.887Z,2.90
2018-07-13T00:32:37.950Z,2.80
2018-07-13T00:35:06.184Z,3.00
2018-07-13T00:37:34.239Z,2.77
2018-07-13T00:40:02.608Z,2.97
2018-07-13T00:42:30.663Z,2.80
2018-07-13T00:44:58.726Z,2.57
2018-07-13T00:47:26.782Z,3.00
2018-07-13T00:49:55.087Z,2.87
2018-07-13T00:52:23.146Z,2.70
2018-07-13T00:54:51.216Z,3.20
2018-07-13T00:57:19.558Z,2.80
2018-07-13T00:59:47.611Z,2.90
2018-07-13T01:02:15.680Z,3.30
2018-07-13T01:04:43.735Z,2.70
2018-07-13T01:07:11.799Z,3.10
2018-07-13T01:09:40.123Z,3.17
2018-07-13T01:12:08.195Z,2.90
2018-07-13T01:14:36.739Z,3.37
2018-07-13T01:17:04.907Z,3.13
2018-07-13T01:19:32.986Z,2.73
2018-07-13T01:22:01.055Z,2.90
2018-07-13T01:24:29.115Z,2.90
2018-07-13T01:26:57.182Z,3.00
2018-07-13T01:29:25.265Z,3.03
2018-07-13T01:31:53.311Z,2.63
2018-07-13T01:34:21.366Z,3.07
2018-07-13T01:36:49.428Z,3.00
2018-07-13T01:39:17.815Z,2.67
2018-07-13T01:41:45.875Z,3.00
2018-07-13T01:44:13.995Z,3.13
2018-07-13T01:46:42.043Z,3.03
2018-07-13T01:49:10.110Z,3.00
2018-07-13T01:51:38.212Z,3.17
2018-07-13T01:54:06.651Z,2.90
2018-07-13T01:56:34.719Z,3.00
2018-07-13T01:59:02.679Z,3.10
2018-07-13T02:01:30.763Z,3.40
2018-07-13T02:03:58.811Z,2.70
2018-07-13T02:06:27.174Z,3.03
2018-07-13T02:08:55.227Z,3.43
2018-07-13T02:11:23.524Z,3.00
2018-07-13T02:13:51.747Z,3.23
2018-07-13T02:16:20.351Z,3.07
2018-07-13T02:18:48.575Z,3.20
2018-07-13T02:21:16.639Z,3.23
2018-07-13T02:23:44.722Z,3.37
2018-07-13T02:26:12.795Z,3.03
2018-07-13T02:28:40.879Z,2.97
2018-07-13T02:31:08.963Z,3.17
2018-07-13T02:33:37.061Z,3.07
2018-07-13T02:36:05.088Z,3.27
2018-07-13T02:38:33.152Z,3.13
2018-07-13T02:41:01.216Z,3.00
2018-07-13T02:43:29.277Z,3.40
2018-07-13T02:45:57.359Z,3.60
2018-07-13T02:48:25.411Z,3.30
2018-07-13T02:50:53.472Z,3.13
2018-07-13T02:53:21.547Z,3.20
2018-07-13T02:55:49.602Z,2.70
2018-07-13T02:58:17.807Z,2.97
2018-07-13T03:00:45.871Z,3.07
2018-07-13T03:03:13.943Z,3.20
2018-07-13T03:05:42.008Z,2.80
2018-07-13T03:08:10.071Z,2.83
2018-07-13T03:10:38.138Z,3.07
2018-07-13T03:13:06.255Z,3.17
2018-07-13T03:15:34.326Z,3.10
2018-07-13T03:18:02.393Z,3.30
2018-07-13T03:20:30.488Z,2.93
2018-07-13T03:22:58.565Z,2.90
2018-07-13T03:25:26.634Z,2.80
2018-07-13T03:27:54.931Z,3.10
2018-07-13T03:30:22.994Z,2.97
2018-07-13T03:32:51.090Z,3.40
2018-07-13T03:35:19.170Z,3.33
2018-07-13T03:37:47.339Z,3.33
2018-07-13T03:40:15.411Z,3.07
2018-07-13T03:42:43.478Z,2.80
2018-07-13T03:45:11.587Z,2.90
2018-07-13T03:47:39.658Z,2.97
2018-07-13T03:50:07.747Z,2.73
2018-07-13T03:52:35.825Z,2.70
2018-07-13T03:55:03.969Z,2.70
2018-07-13T03:57:32.057Z,3.37
2018-07-13T04:00:00.158Z,3.27
2018-07-13T04:02:28.239Z,2.97
2018-07-13T04:04:56.299Z,2.87
2018-07-13T04:07:24.374Z,3.10
2018-07-13T04:09:52.442Z,2.80
2018-07-13T04:12:20.890Z,2.80
2018-07-13T04:14:48.959Z,3.30
2018-07-13T04:17:17.028Z,2.93
2018-07-13T04:19:45.091Z,2.90
2018-07-13T04:22:13.167Z,3.50
2018-07-13T04:24:41.395Z,2.97
2018-07-13T04:27:09.467Z,3.03
2018-07-13T04:29:37.559Z,3.20
2018-07-13T04:32:05.879Z,3.10
2018-07-13T04:34:33.952Z,3.10
2018-07-13T04:37:02.024Z,3.10
2018-07-13T04:39:30.103Z,3.13
2018-07-13T04:41:58.170Z,2.80
2018-07-13T04:44:26.247Z,2.97
2018-07-13T04:46:54.307Z,3.10
2018-07-13T04:49:22.378Z,2.80
2018-07-13T04:51:50.731Z,3.20
2018-07-13T04:54:18.799Z,2.93
2018-07-13T04:56:46.868Z,3.00
2018-07-13T04:59:15.104Z,3.27
2018-07-13T05:01:43.176Z,2.70
2018-07-13T05:04:11.347Z,2.83
2018-07-13T05:06:39.409Z,2.97
2018-07-13T05:09:07.893Z,3.00
2018-07-13T05:11:36.056Z,3.10
2018-07-13T05:14:04.154Z,3.00
2018-07-13T05:16:32.214Z,2.90
2018-07-13T05:19:00.282Z,3.27
2018-07-13T05:21:28.355Z,3.53
2018-07-13T05:23:56.436Z,2.80
2018-07-13T05:26:24.758Z,3.13
2018-07-13T05:28:52.845Z,3.40
2018-07-13T05:31:20.975Z,4.90
2018-07-13T05:33:49.047Z,4.93
2018-07-13T05:36:17.114Z,4.53
2018-07-13T05:38:45.182Z,3.30
2018-07-13T05:41:13.599Z,3.70
2018-07-13T05:43:41.694Z,4.33
2018-07-13T05:46:09.764Z,3.77
2018-07-13T05:48:38.564Z,4.33
2018-07-13T05:51:06.890Z,3.90
2018-07-13T05:53:34.967Z,3.80
2018-07-13T05:56:03.042Z,4.27
2018-07-13T05:58:31.163Z,4.00
2018-07-13T06:00:59.231Z,3.53
2018-07-13T06:03:27.487Z,4.07
2018-07-13T06:05:55.547Z,4.20
2018-07-13T06:08:23.610Z,4.00
2018-07-13T06:10:51.792Z,3.93
2018-07-13T06:13:19.863Z,4.33
2018-07-13T06:15:48.196Z,4.23
2018-07-13T06:18:16.266Z,4.23
2018-07-13T06:20:44.344Z,4.53
2018-07-13T06:23:12.439Z,4.30
2018-07-13T06:25:40.498Z,5.00
2018-07-13T06:28:08.564Z,5.27
2018-07-13T06:30:37.130Z,4.50
2018-07-13T06:33:05.998Z,4.70
2018-07-13T06:35:33.862Z,4.73
2018-07-13T06:38:01.947Z,5.47
2018-07-13T06:40:30.054Z,4.83
2018-07-13T06:42:58.198Z,4.70
2018-07-13T06:45:26.372Z,5.40
2018-07-13T06:47:54.425Z,4.30
2018-07-13T06:50:22.503Z,5.30
2018-07-13T06:52:51.048Z,5.07
2018-07-13T06:55:19.268Z,5.83
2018-07-13T06:57:58.833Z,5.17
2018-07-13T07:01:02.881Z,5.20
2018-07-13T07:03:32.738Z,5.47
2018-07-13T07:06:04.267Z,5.50
2018-07-13T07:08:32.358Z,5.10
2018-07-13T07:11:00.602Z,4.97
2018-07-13T07:13:31.079Z,5.03
2018-07-13T07:15:59.454Z,4.63
2018-07-13T07:18:27.545Z,4.67
2018-07-13T07:20:56.659Z,4.80
2018-07-13T07:23:24.770Z,4.73
2018-07-13T07:25:53.581Z,4.50
2018-07-13T07:28:21.754Z,4.60
2018-07-13T07:30:50.253Z,4.40
2018-07-13T07:33:18.350Z,4.53
2018-07-13T07:35:46.627Z,4.50
2018-07-13T07:38:14.792Z,4.80
2018-07-13T07:40:42.880Z,4.30
2018-07-13T07:43:11.171Z,4.60
2018-07-13T07:45:39.266Z,3.90
2018-07-13T07:48:07.915Z,4.00
2018-07-13T07:50:36.293Z,4.73
2018-07-13T07:53:04.458Z,3.77
2018-07-13T07:55:32.753Z,4.37
2018-07-13T07:58:00.954Z,3.90
2018-07-13T08:00:29.306Z,4.03
2018-07-13T08:02:57.563Z,4.33
2018-07-13T08:05:25.859Z,4.17
2018-07-13T08:07:54.185Z,4.07
2018-07-13T08:10:22.412Z,4.17
2018-07-13T08:12:51.017Z,4.20
2018-07-13T08:15:19.449Z,3.63
2018-07-13T08:17:47.758Z,4.13
2018-07-13T08:20:24.281Z,3.73
2018-07-13T08:22:54.644Z,3.70
2018-07-13T08:25:23.427Z,3.90
2018-07-13T08:27:53.412Z,3.80
2018-07-13T08:30:27.804Z,3.53
2018-07-13T08:32:56.032Z,3.60
2018-07-13T08:35:24.271Z,3.63
2018-07-13T08:37:52.507Z,3.47
2018-07-13T08:40:20.654Z,3.90
2018-07-13T08:42:48.862Z,3.80
2018-07-13T08:45:17.115Z,3.27
2018-07-13T08:47:45.780Z,3.80
2018-07-13T08:50:14.064Z,4.00
2018-07-13T08:52:42.482Z,3.80
2018-07-13T08:55:13.040Z,3.73
2018-07-13T08:57:43.074Z,4.20
2018-07-13T09:00:11.477Z,3.80
2018-07-13T09:02:40.361Z,3.77
2018-07-13T09:05:08.907Z,3.60
2018-07-13T09:07:37.562Z,3.70
2018-07-13T09:10:10.190Z,3.57
2018-07-13T09:12:38.801Z,3.60
2018-07-13T09:15:07.891Z,3.30
2018-07-13T09:17:36.423Z,3.77
2018-07-13T09:20:05.611Z,3.30
2018-07-13T09:22:33.947Z,3.43
2018-07-13T09:25:02.055Z,3.43
2018-07-13T09:27:30.452Z,3.43
2018-07-13T09:29:58.844Z,3.50
2018-07-13T09:32:27.207Z,3.20
2018-07-13T09:34:55.597Z,3.53
2018-07-13T09:37:23.826Z,3.50
2018-07-13T09:39:51.919Z,3.60
2018-07-13T09:42:20.215Z,3.43
2018-07-13T09:44:48.282Z,3.53
2018-07-13T09:47:16.363Z,3.40
2018-07-13T09:49:44.517Z,3.53
2018-07-13T09:52:12.954Z,3.27
2018-07-13T09:54:41.067Z,3.13
2018-07-13T09:57:09.195Z,3.43
2018-07-13T09:59:37.514Z,3.50
2018-07-13T10:02:05.799Z,3.43
2018-07-13T10:04:33.864Z,4.00
2018-07-13T10:07:02.047Z,4.20
2018-07-13T10:09:30.122Z,3.83
2018-07-13T10:11:58.277Z,3.67
2018-07-13T10:14:26.397Z,4.13
2018-07-13T10:16:54.416Z,3.77
2018-07-13T10:19:22.527Z,4.00
2018-07-13T10:21:50.687Z,4.17
2018-07-13T10:24:19.815Z,3.67
2018-07-13T10:26:48.175Z,3.20
2018-07-13T10:29:19.608Z,3.37
2018-07-13T10:31:47.987Z,3.57
2018-07-13T10:34:17.194Z,3.20
2018-07-13T10:36:47.899Z,3.47
2018-07-13T10:39:15.971Z,3.77
2018-07-13T10:41:44.054Z,3.37
2018-07-13T10:44:12.139Z,3.70
2018-07-13T10:46:40.223Z,3.20
2018-07-13T10:49:08.575Z,3.73
2018-07-13T10:51:37.164Z,3.40
2018-07-13T10:54:05.214Z,3.40
2018-07-13T10:56:33.601Z,3.70
2018-07-13T10:59:01.679Z,3.60
2018-07-13T11:01:29.790Z,3.47
2018-07-13T11:03:57.858Z,3.50
2018-07-13T11:06:25.931Z,3.10
2018-07-13T11:08:54.031Z,3.33
2018-07-13T11:11:22.095Z,3.03
2018-07-13T11:13:50.480Z,3.40
2018-07-13T11:16:18.523Z,3.10
2018-07-13T11:18:46.618Z,3.37
2018-07-13T11:21:14.692Z,3.50
2018-07-13T11:23:42.782Z,3.20
2018-07-13T11:26:10.854Z,3.60
2018-07-13T11:28:39.008Z,3.77
2018-07-13T11:31:07.062Z,3.47
2018-07-13T11:33:35.143Z,4.07
2018-07-13T11:36:03.241Z,3.70
2018-07-13T11:38:31.363Z,3.40
2018-07-13T11:40:59.738Z,4.10
2018-07-13T11:43:27.817Z,3.87
2018-07-13T11:45:55.887Z,3.00
2018-07-13T11:48:23.978Z,3.53
2018-07-13T11:50:52.063Z,3.67
2018-07-13T11:53:20.223Z,3.17
2018-07-13T11:55:48.299Z,3.67
2018-07-13T11:58:16.402Z,2.80
2018-07-13T12:00:44.530Z,3.50
2018-07-13T12:03:12.710Z,3.53
2018-07-13T12:05:40.778Z,3.23
2018-07-13T12:08:08.879Z,3.73
2018-07-13T12:10:36.953Z,3.70
2018-07-13T12:13:05.175Z,3.80
2018-07-13T12:15:33.256Z,3.83
2018-07-13T12:18:01.347Z,3.53
2018-07-13T12:20:29.434Z,3.90
2018-07-13T12:22:57.538Z,3.23
2018-07-13T12:25:25.502Z,3.17
2018-07-13T12:27:53.574Z,3.00
2018-07-13T12:30:21.664Z,3.33
2018-07-13T12:32:49.774Z,2.87
2018-07-13T12:35:17.854Z,3.20
2018-07-13T12:37:45.919Z,3.17
2018-07-13T12:40:14.035Z,3.23
2018-07-13T12:42:42.133Z,3.30
2018-07-13T12:45:10.207Z,3.37
2018-07-13T12:47:38.269Z,3.40
2018-07-13T12:50:06.543Z,3.80
2018-07-13T12:52:34.627Z,3.43
2018-07-13T12:55:02.725Z,2.97
2018-07-13T12:57:30.827Z,3.50
2018-07-13T12:59:59.102Z,3.80
2018-07-13T13:02:27.164Z,4.00
2018-07-13T13:04:55.240Z,3.97
2018-07-13T13:07:23.315Z,3.37
2018-07-13T13:09:51.386Z,3.27
2018-07-13T13:12:19.456Z,3.83
2018-07-13T13:14:47.526Z,3.80
2018-07-13T13:17:15.610Z,3.70
2018-07-13T13:19:43.682Z,3.83
2018-07-13T13:22:11.751Z,3.50
2018-07-13T13:24:39.840Z,3.63
2018-07-13T13:27:07.903Z,3.60
2018-07-13T13:29:36.004Z,3.43
2018-07-13T13:32:04.075Z,3.20
2018-07-13T13:34:32.163Z,3.83
2018-07-13T13:37:00.223Z,3.40
2018-07-13T13:39:28.318Z,3.60
2018-07-13T13:41:56.379Z,3.60
2018-07-13T13:44:24.452Z,3.23
2018-07-13T13:46:52.531Z,2.93
2018-07-13T13:49:21.038Z,3.60
2018-07-13T13:51:49.150Z,3.10
2018-07-13T13:54:17.243Z,3.50
2018-07-13T13:56:45.311Z,3.40
2018-07-13T13:59:13.398Z,3.33
2018-07-13T14:01:41.370Z,3.63
2018-07-13T14:04:09.444Z,3.23
2018-07-13T14:06:37.511Z,3.60
2018-07-13T14:09:06.694Z,3.77
2018-07-13T14:11:34.668Z,3.10
2018-07-13T14:14:02.763Z,3.30
2018-07-13T14:16:30.851Z,2.97
2018-07-13T14:18:59.067Z,3.37
2018-07-13T14:21:27.217Z,3.43
2018-07-13T14:23:55.245Z,2.87
2018-07-13T14:26:23.319Z,3.20
2018-07-13T14:28:51.782Z,3.20
2018-07-13T14:31:19.886Z,3.07
2018-07-13T14:33:47.954Z,3.17
2018-07-13T14:36:16.069Z,2.70
2018-07-13T14:38:44.150Z,3.17
2018-07-13T14:41:12.228Z,2.97
2018-07-13T14:43:40.199Z,3.10
2018-07-13T14:46:08.151Z,2.63
2018-07-13T14:48:36.436Z,2.70
2018-07-13T14:51:04.531Z,2.97
2018-07-13T14:53:32.929Z,3.00
2018-07-13T14:56:01.054Z,2.80
2018-07-13T14:58:29.083Z,3.10
2018-07-13T15:00:57.187Z,3.07
2018-07-13T15:03:25.259Z,2.97
2018-07-13T15:05:53.394Z,3.10
2018-07-13T15:08:21.543Z,2.73
2018-07-13T15:10:49.634Z,2.80
2018-07-13T15:13:17.714Z,2.93
2018-07-13T15:15:45.813Z,3.17
2018-07-13T15:18:13.890Z,3.00
2018-07-13T15:20:41.964Z,2.67
2018-07-13T15:23:10.035Z,3.00
2018-07-13T15:25:38.306Z,2.90
2018-07-13T15:28:06.374Z,2.90
2018-07-13T15:30:34.454Z,3.20
2018-07-13T15:33:02.872Z,2.73
2018-07-13T15:35:30.972Z,3.00
2018-07-13T15:37:59.031Z,2.87
2018-07-13T15:40:27.122Z,2.90
2018-07-13T15:42:55.242Z,2.90
2018-07-13T15:45:23.316Z,2.60
2018-07-13T15:47:51.447Z,2.70
2018-07-13T15:50:19.534Z,2.80
2018-07-13T15:52:47.622Z,2.70
2018-07-13T15:55:15.706Z,2.90
2018-07-13T15:57:43.880Z,2.80
2018-07-13T16:00:11.937Z,3.07
2018-07-13T16:02:40.338Z,2.90
2018-07-13T16:05:08.616Z,2.90
2018-07-13T16:07:36.582Z,2.97
2018-07-13T16:10:04.651Z,2.97
2018-07-13T16:12:32.733Z,3.30
2018-07-13T16:15:00.883Z,3.67
2018-07-13T16:17:28.942Z,3.23
2018-07-13T16:19:57.007Z,3.20
2018-07-13T16:22:25.083Z,3.63
2018-07-13T16:24:53.159Z,2.80
2018-07-13T16:27:21.242Z,2.90
2018-07-13T16:29:49.307Z,2.80
2018-07-13T16:32:17.390Z,3.37
2018-07-13T16:34:45.466Z,2.83
2018-07-13T16:37:13.863Z,3.30
2018-07-13T16:39:41.933Z,3.17
2018-07-13T16:42:09.999Z,2.90
2018-07-13T16:44:38.066Z,3.23
2018-07-13T16:47:06.362Z,2.87
2018-07-13T16:49:34.428Z,2.90
2018-07-13T16:52:02.496Z,3.20
2018-07-13T16:54:30.559Z,2.77
2018-07-13T16:56:58.630Z,2.77
2018-07-13T16:59:26.766Z,3.77
2018-07-13T17:01:54.823Z,3.00
2018-07-13T17:04:22.895Z,2.93
2018-07-13T17:06:50.966Z,2.63
2018-07-13T17:09:19.285Z,2.80
2018-07-13T17:11:47.406Z,2.60
2018-07-13T17:14:15.799Z,2.67
2018-07-13T17:16:43.880Z,2.50
2018-07-13T17:19:11.951Z,2.93
2018-07-13T17:21:40.035Z,3.13
2018-07-13T17:24:08.106Z,2.80
2018-07-13T17:26:36.200Z,3.40
2018-07-13T17:29:04.274Z,2.47
2018-07-13T17:31:32.348Z,2.50
2018-07-13T17:34:00.439Z,2.67
2018-07-13T17:36:28.511Z,2.70
2018-07-13T17:38:56.631Z,3.03
2018-07-13T17:41:24.694Z,2.70
2018-07-13T17:43:52.762Z,2.40
2018-07-13T17:46:20.838Z,2.33
2018-07-13T17:48:49.021Z,2.70
2018-07-13T17:51:17.046Z,2.67
2018-07-13T17:53:45.132Z,2.30
2018-07-13T17:56:13.196Z,2.70
2018-07-13T17:58:41.301Z,2.13
2018-07-13T18:01:09.491Z,2.60
2018-07-13T18:03:37.567Z,2.40
2018-07-13T18:06:05.659Z,2.70
2018-07-13T18:08:33.752Z,2.20
2018-07-13T18:11:02.131Z,2.60
2018-07-13T18:13:30.215Z,2.20
2018-07-13T18:15:58.287Z,2.70
2018-07-13T18:18:26.377Z,2.40
2018-07-13T18:20:54.490Z,2.40
2018-07-13T18:23:22.575Z,2.30
2018-07-13T18:25:50.775Z,2.50
2018-07-13T18:28:18.878Z,2.43
2018-07-13T18:30:46.930Z,2.10
2018-07-13T18:33:15.020Z,2.63
2018-07-13T18:35:43.091Z,2.10
2018-07-13T18:38:11.168Z,1.90
2018-07-13T18:40:39.245Z,2.17
2018-07-13T18:43:07.189Z,2.70
2018-07-13T18:45:35.274Z,2.60
2018-07-13T18:48:03.381Z,2.20
2018-07-13T18:50:31.623Z,2.63
2018-07-13T18:52:59.714Z,2.20
2018-07-13T18:55:27.826Z,2.27
2018-07-13T18:57:55.935Z,2.17
2018-07-13T19:00:24.302Z,2.27
2018-07-13T19:02:52.374Z,2.83
2018-07-13T19:05:20.668Z,2.27
2018-07-13T19:07:48.754Z,2.40
2018-07-13T19:10:16.850Z,2.50
2018-07-13T19:12:45.030Z,2.27
2018-07-13T19:15:13.087Z,2.40
2018-07-13T19:17:41.162Z,2.40
2018-07-13T19:20:09.387Z,2.67
2018-07-13T19:22:37.530Z,2.97
2018-07-13T19:25:05.816Z,4.43
2018-07-13T19:27:33.907Z,4.83
2018-07-13T19:30:01.991Z,5.17
2018-07-13T19:32:30.092Z,5.20
2018-07-13T19:34:58.185Z,4.30
2018-07-13T19:37:26.282Z,4.63
2018-07-13T19:39:54.362Z,3.77
2018-07-13T19:42:22.468Z,3.60
2018-07-13T19:44:50.529Z,3.73
2018-07-13T19:47:18.594Z,4.53
2018-07-13T19:49:46.675Z,4.83
2018-07-13T19:52:14.750Z,4.90
2018-07-13T19:54:42.822Z,5.83
2018-07-13T19:57:10.914Z,4.77
2018-07-13T19:59:39.065Z,5.93
2018-07-13T20:02:07.263Z,5.30
2018-07-13T20:04:35.671Z,5.73
2018-07-13T20:07:03.745Z,5.03
2018-07-13T20:09:31.826Z,4.90
2018-07-13T20:11:59.917Z,4.80
2018-07-13T20:14:27.986Z,4.90
2018-07-13T20:16:56.261Z,4.37
2018-07-13T20:19:24.271Z,4.10
2018-07-13T20:21:52.622Z,4.80
2018-07-13T20:24:20.747Z,5.90
2018-07-13T20:26:48.865Z,6.93
2018-07-13T20:29:16.939Z,5.40
2018-07-13T20:31:45.055Z,4.83
2018-07-13T20:34:13.752Z,5.13
2018-07-13T20:36:41.842Z,4.93
2018-07-13T20:39:10.033Z,4.93
2018-07-13T20:41:38.114Z,4.57
2018-07-13T20:44:06.502Z,4.90
2018-07-13T20:46:34.571Z,4.53
2018-07-13T20:49:02.649Z,4.37
2018-07-13T20:51:30.714Z,3.87
2018-07-13T20:53:58.790Z,3.57
2018-07-13T20:56:26.854Z,3.53
2018-07-13T20:58:55.781Z,4.03
2018-07-13T21:01:23.811Z,3.30
2018-07-13T21:03:51.879Z,3.43
2018-07-13T21:06:20.086Z,2.83
2018-07-13T21:08:48.147Z,2.53
2018-07-13T21:11:16.227Z,3.03
2018-07-13T21:13:44.294Z,3.07
2018-07-13T21:16:12.375Z,2.60
2018-07-13T21:18:40.242Z,2.90
2018-07-13T21:21:08.318Z,2.53
2018-07-13T21:23:36.398Z,3.00
2018-07-13T21:26:04.597Z,2.50
2018-07-13T21:28:32.685Z,2.77
2018-07-13T21:31:00.731Z,2.60
2018-07-13T21:33:28.802Z,2.60
2018-07-13T21:35:56.879Z,2.60
2018-07-13T21:38:24.944Z,2.57
2018-07-13T21:40:53.027Z,2.53
2018-07-13T21:43:21.093Z,2.80
2018-07-13T21:45:49.641Z,2.67
2018-07-13T21:48:17.712Z,3.07
2018-07-13T21:50:45.807Z,2.63
2018-07-13T21:53:13.863Z,2.90
2018-07-13T21:55:41.955Z,2.70
2018-07-13T21:58:10.126Z,2.97
2018-07-13T22:00:38.191Z,2.40
2018-07-13T22:05:40.775Z,2.73
2018-07-13T22:08:08.843Z,2.60
2018-07-13T22:10:37.031Z,2.60
2018-07-13T22:13:05.511Z,2.40
2018-07-13T22:15:33.587Z,2.50
2018-07-13T22:18:01.669Z,2.40
2018-07-13T22:20:29.756Z,2.80
2018-07-13T22:22:57.847Z,2.40
2018-07-13T22:25:25.918Z,2.50
2018-07-13T22:27:53.879Z,2.67
2018-07-13T22:30:21.955Z,2.47
2018-07-13T22:32:50.072Z,2.57
2018-07-13T22:35:18.552Z,2.57
2018-07-13T22:37:46.726Z,2.60
2018-07-13T22:40:14.816Z,2.83
2018-07-13T22:42:42.863Z,2.20
2018-07-13T22:45:10.939Z,2.47
2018-07-13T22:47:39.315Z,2.37
2018-07-13T22:50:07.692Z,2.70
2018-07-13T22:52:35.759Z,3.13
2018-07-13T22:55:03.901Z,2.30
2018-07-13T22:57:31.952Z,2.57
2018-07-13T23:00:00.094Z,2.40
2018-07-13T23:02:28.134Z,2.40
2018-07-13T23:04:56.219Z,2.77
2018-07-13T23:07:24.389Z,2.40
2018-07-13T23:09:52.451Z,2.37
2018-07-13T23:12:20.538Z,2.43
2018-07-13T23:14:48.602Z,2.30
2018-07-13T23:17:16.706Z,2.37
2018-07-13T23:19:45.035Z,2.50
2018-07-13T23:22:13.119Z,2.50
2018-07-13T23:24:41.199Z,2.20
2018-07-13T23:27:09.266Z,2.07
2018-07-13T23:29:37.423Z,2.60
2018-07-13T23:32:05.655Z,2.30
2018-07-13T23:34:33.778Z,2.40
2018-07-13T23:37:01.847Z,2.60
2018-07-13T23:39:29.916Z,2.73
2018-07-13T23:41:57.995Z,2.30
2018-07-13T23:44:26.339Z,2.50
2018-07-13T23:46:54.439Z,2.60
2018-07-13T23:49:22.503Z,2.73
2018-07-13T23:51:50.586Z,2.20
2018-07-13T23:54:18.659Z,2.13
2018-07-13T23:56:46.771Z,2.30
2018-07-13T23:59:14.889Z,2.37
